sensor_id;sensor_type;location;lat;lon;timestamp;pressure;altitude;pressure_sealevel;temperature;humidity
48386;BME280;34644;47.964;7.982;2023-04-03T00:05:50;97057.13;;;15.23;66.50
48386;BME280;34644;47.964;7.982;2023-04-03T00:12:51;97070.91;;;15.19;66.14
48386;BME280;34644;47.964;7.982;2023-04-03T00:19:51;97078.06;;;15.19;66.06
48386;BME280;34644;47.964;7.982;2023-04-03T00:26:52;97081.75;;;15.18;66.08
48386;BME280;34644;47.964;7.982;2023-04-03T00:33:52;97080.72;;;15.19;65.94
48386;BME280;34644;47.964;7.982;2023-04-03T00:40:52;97092.97;;;15.20;65.86
48386;BME280;34644;47.964;7.982;2023-04-03T00:47:52;97086.31;;;15.23;66.34
48386;BME280;34644;47.964;7.982;2023-04-03T00:54:54;97078.59;;;15.21;66.30
48386;BME280;34644;47.964;7.982;2023-04-03T01:01:57;97081.25;;;15.21;65.79
48386;BME280;34644;47.964;7.982;2023-04-03T01:08:57;97081.25;;;15.21;65.97
48386;BME280;34644;47.964;7.982;2023-04-03T01:16:03;97083.91;;;15.21;65.89
48386;BME280;34644;47.964;7.982;2023-04-03T01:30:11;97082.59;;;15.18;65.77
48386;BME280;34644;47.964;7.982;2023-04-03T01:37:13;97090.56;;;15.18;65.76
48386;BME280;34644;47.964;7.982;2023-04-03T01:44:13;97086.28;;;15.17;65.55
48386;BME280;34644;47.964;7.982;2023-04-03T01:51:14;97090.81;;;15.17;65.47
48386;BME280;34644;47.964;7.982;2023-04-03T01:58:14;97073.25;;;15.16;65.34
48386;BME280;34644;47.964;7.982;2023-04-03T02:05:15;97075.13;;;15.15;65.15
48386;BME280;34644;47.964;7.982;2023-04-03T02:12:16;97069.81;;;15.15;64.98
48386;BME280;34644;47.964;7.982;2023-04-03T02:19:17;97064.75;;;15.14;65.31
48386;BME280;34644;47.964;7.982;2023-04-03T02:26:17;97059.44;;;15.14;64.88
48386;BME280;34644;47.964;7.982;2023-04-03T02:33:19;97058.66;;;15.13;65.05
48386;BME280;34644;47.964;7.982;2023-04-03T02:40:19;97062.34;;;15.12;64.78
48386;BME280;34644;47.964;7.982;2023-04-03T02:47:20;97057.28;;;15.11;64.79
48386;BME280;34644;47.964;7.982;2023-04-03T02:54:22;97060.72;;;15.11;65.02
48386;BME280;34644;47.964;7.982;2023-04-03T03:01:26;97051.97;;;15.11;64.84
48386;BME280;34644;47.964;7.982;2023-04-03T03:08:28;97053.84;;;15.10;65.11
48386;BME280;34644;47.964;7.982;2023-04-03T03:15:29;97063.63;;;15.10;64.81
48386;BME280;34644;47.964;7.982;2023-04-03T03:22:29;97059.41;;;15.09;65.16
48386;BME280;34644;47.964;7.982;2023-04-03T03:29:30;97064.13;;;15.07;64.82
48386;BME280;34644;47.964;7.982;2023-04-03T03:36:30;97067.38;;;15.09;64.98
48386;BME280;34644;47.964;7.982;2023-04-03T03:43:31;97072.94;;;15.07;64.91
48386;BME280;34644;47.964;7.982;2023-04-03T03:50:32;97077.41;;;15.07;64.75
48386;BME280;34644;47.964;7.982;2023-04-03T03:57:33;97080.88;;;15.07;64.98
48386;BME280;34644;47.964;7.982;2023-04-03T04:04:33;97091.50;;;15.07;64.82
48386;BME280;34644;47.964;7.982;2023-04-03T04:11:34;97084.59;;;15.06;64.94
48386;BME280;34644;47.964;7.982;2023-04-03T04:18:35;97093.94;;;15.14;64.83
48386;BME280;34644;47.964;7.982;2023-04-03T04:25:35;97093.47;;;15.17;65.14
48386;BME280;34644;47.964;7.982;2023-04-03T04:32:36;97083.53;;;15.07;64.96
48386;BME280;34644;47.964;7.982;2023-04-03T04:39:37;97082.97;;;15.05;64.59
48386;BME280;34644;47.964;7.982;2023-04-03T04:46:38;97081.38;;;15.04;64.53
48386;BME280;34644;47.964;7.982;2023-04-03T04:53:40;97083.22;;;15.04;64.48
48386;BME280;34644;47.964;7.982;2023-04-03T05:00:43;97086.44;;;15.06;64.69
48386;BME280;34644;47.964;7.982;2023-04-03T05:07:45;97096.81;;;15.07;64.67
48386;BME280;34644;47.964;7.982;2023-04-03T05:14:45;97097.59;;;15.08;64.85
48386;BME280;34644;47.964;7.982;2023-04-03T05:21:46;97102.13;;;15.07;64.83
48386;BME280;34644;47.964;7.982;2023-04-03T05:28:49;97107.44;;;15.07;64.95
48386;BME280;34644;47.964;7.982;2023-04-03T05:35:50;97109.03;;;15.08;64.67
48386;BME280;34644;47.964;7.982;2023-04-03T05:42:55;97106.13;;;15.10;64.88
48386;BME280;34644;47.964;7.982;2023-04-03T05:49:58;97109.03;;;15.08;64.76
48386;BME280;34644;47.964;7.982;2023-04-03T05:56:58;97115.94;;;15.09;64.25
48386;BME280;34644;47.964;7.982;2023-04-03T06:04:00;97116.44;;;15.06;64.00
48386;BME280;34644;47.964;7.982;2023-04-03T06:11:01;97124.16;;;15.08;64.28
48386;BME280;34644;47.964;7.982;2023-04-03T06:18:02;97123.84;;;15.04;64.44
48386;BME280;34644;47.964;7.982;2023-04-03T06:25:02;97132.88;;;15.03;63.41
48386;BME280;34644;47.964;7.982;2023-04-03T06:32:03;97135.22;;;14.99;63.07
48386;BME280;34644;47.964;7.982;2023-04-03T06:39:03;97142.69;;;15.02;63.42
48386;BME280;34644;47.964;7.982;2023-04-03T06:46:03;97138.72;;;15.05;63.45
48386;BME280;34644;47.964;7.982;2023-04-03T06:53:04;97141.38;;;15.05;63.48
48386;BME280;34644;47.964;7.982;2023-04-03T07:00:04;97149.28;;;15.00;63.22
48386;BME280;34644;47.964;7.982;2023-04-03T07:07:05;97151.41;;;14.98;62.76
48386;BME280;34644;47.964;7.982;2023-04-03T07:14:05;97170.16;;;14.91;62.14
48386;BME280;34644;47.964;7.982;2023-04-03T07:21:07;97173.06;;;14.90;61.99
48386;BME280;34644;47.964;7.982;2023-04-03T07:28:08;97184.41;;;14.85;61.40
48386;BME280;34644;47.964;7.982;2023-04-03T07:35:08;97189.78;;;14.90;60.90
48386;BME280;34644;47.964;7.982;2023-04-03T07:42:09;97187.44;;;14.94;60.87
48386;BME280;34644;47.964;7.982;2023-04-03T07:49:10;97199.66;;;14.95;60.92
48386;BME280;34644;47.964;7.982;2023-04-03T07:56:10;97211.38;;;14.99;61.47
48386;BME280;34644;47.964;7.982;2023-04-03T08:03:11;97206.50;;;15.13;62.25
48386;BME280;34644;47.964;7.982;2023-04-03T08:10:11;97202.00;;;15.13;61.60
48386;BME280;34644;47.964;7.982;2023-04-03T08:17:12;97214.47;;;15.13;61.75
48386;BME280;34644;47.964;7.982;2023-04-03T08:24:12;97211.00;;;15.12;61.61
48386;BME280;34644;47.964;7.982;2023-04-03T08:31:15;97218.72;;;15.14;61.58
48386;BME280;34644;47.964;7.982;2023-04-03T08:38:15;97230.16;;;15.14;61.36
48386;BME280;34644;47.964;7.982;2023-04-03T08:45:16;97245.59;;;15.17;61.47
48386;BME280;34644;47.964;7.982;2023-04-03T08:52:23;97248.28;;;15.23;62.06
48386;BME280;34644;47.964;7.982;2023-04-03T08:59:29;97250.94;;;15.23;62.04
48386;BME280;34644;47.964;7.982;2023-04-03T09:06:32;97267.22;;;15.26;63.03
48386;BME280;34644;47.964;7.982;2023-04-03T09:13:39;97262.94;;;15.25;62.80
48386;BME280;34644;47.964;7.982;2023-04-03T09:27:54;97253.84;;;15.43;63.50
48386;BME280;34644;47.964;7.982;2023-04-03T09:35:03;97246.94;;;15.42;63.28
48386;BME280;34644;47.964;7.982;2023-04-03T09:42:05;97237.34;;;15.41;63.62
48386;BME280;34644;47.964;7.982;2023-04-03T09:49:08;97253.19;;;15.31;62.84
48386;BME280;34644;47.964;7.982;2023-04-03T10:03:24;97245.81;;;15.38;63.23
48386;BME280;34644;47.964;7.982;2023-04-03T10:10:25;97252.25;;;15.42;62.89
48386;BME280;34644;47.964;7.982;2023-04-03T10:17:36;97250.88;;;15.40;63.02
48386;BME280;34644;47.964;7.982;2023-04-03T10:24:54;97238.94;;;15.37;62.70
48386;BME280;34644;47.964;7.982;2023-04-03T10:39:05;97246.94;;;15.42;63.36
48386;BME280;34644;47.964;7.982;2023-04-03T10:46:23;97241.63;;;15.42;63.26
48386;BME280;34644;47.964;7.982;2023-04-03T11:00:38;97241.88;;;15.41;62.99
48386;BME280;34644;47.964;7.982;2023-04-03T11:07:40;97225.38;;;15.38;62.93
48386;BME280;34644;47.964;7.982;2023-04-03T11:14:43;97223.53;;;15.39;62.76
48386;BME280;34644;47.964;7.982;2023-04-03T11:21:45;97219.56;;;15.42;63.01
48386;BME280;34644;47.964;7.982;2023-04-03T11:28:51;97216.34;;;15.40;63.00
48386;BME280;34644;47.964;7.982;2023-04-03T11:35:52;97216.56;;;15.33;63.09
48386;BME280;34644;47.964;7.982;2023-04-03T11:50:04;97208.38;;;15.40;63.35
48386;BME280;34644;47.964;7.982;2023-04-03T12:04:25;97189.78;;;15.40;63.17
48386;BME280;34644;47.964;7.982;2023-04-03T12:11:28;97200.72;;;15.43;63.43
48386;BME280;34644;47.964;7.982;2023-04-03T12:25:49;97193.00;;;15.42;63.26
48386;BME280;34644;47.964;7.982;2023-04-03T12:40:10;97186.59;;;15.37;63.18
48386;BME280;34644;47.964;7.982;2023-04-03T12:47:34;97195.59;;;15.36;63.50
48386;BME280;34644;47.964;7.982;2023-04-03T12:54:36;97194.03;;;15.35;63.16
48386;BME280;34644;47.964;7.982;2023-04-03T13:01:37;97192.16;;;15.36;63.40
48386;BME280;34644;47.964;7.982;2023-04-03T13:08:38;97190.09;;;15.43;63.07
48386;BME280;34644;47.964;7.982;2023-04-03T13:15:48;97177.88;;;15.42;63.21
48386;BME280;34644;47.964;7.982;2023-04-03T13:23:02;97181.03;;;15.39;63.23
48386;BME280;34644;47.964;7.982;2023-04-03T13:30:21;97170.66;;;15.37;63.24
48386;BME280;34644;47.964;7.982;2023-04-03T13:37:24;97173.38;;;15.43;63.24
48386;BME280;34644;47.964;7.982;2023-04-03T13:51:31;97169.91;;;15.42;63.44
48386;BME280;34644;47.964;7.982;2023-04-03T13:58:31;97169.41;;;15.45;63.29
48386;BME280;34644;47.964;7.982;2023-04-03T14:05:33;97158.78;;;15.45;63.38
48386;BME280;34644;47.964;7.982;2023-04-03T14:12:34;97156.13;;;15.45;63.23
48386;BME280;34644;47.964;7.982;2023-04-03T14:19:36;97145.19;;;15.42;63.36
48386;BME280;34644;47.964;7.982;2023-04-03T14:26:36;97141.75;;;15.41;63.48
48386;BME280;34644;47.964;7.982;2023-04-03T14:33:37;97137.22;;;15.42;63.48
48386;BME280;34644;47.964;7.982;2023-04-03T14:40:37;97139.09;;;15.41;63.44
48386;BME280;34644;47.964;7.982;2023-04-03T14:47:43;97128.47;;;15.41;63.45
48386;BME280;34644;47.964;7.982;2023-04-03T14:54:46;97130.31;;;15.41;63.57
48386;BME280;34644;47.964;7.982;2023-04-03T15:01:46;97137.47;;;15.40;63.57
48386;BME280;34644;47.964;7.982;2023-04-03T15:08:47;97137.47;;;15.40;63.36
48386;BME280;34644;47.964;7.982;2023-04-03T15:15:47;97139.09;;;15.41;63.39
48386;BME280;34644;47.964;7.982;2023-04-03T15:22:48;97139.09;;;15.41;63.37
48386;BME280;34644;47.964;7.982;2023-04-03T15:29:48;97146.81;;;15.43;63.21
48386;BME280;34644;47.964;7.982;2023-04-03T15:36:51;97154.22;;;15.41;63.05
48386;BME280;34644;47.964;7.982;2023-04-03T15:43:55;97144.31;;;15.31;62.01
48386;BME280;34644;47.964;7.982;2023-04-03T15:50:57;97147.56;;;15.38;62.77
48386;BME280;34644;47.964;7.982;2023-04-03T15:57:58;97148.34;;;15.38;61.66
48386;BME280;34644;47.964;7.982;2023-04-03T16:04:58;97150.22;;;15.38;62.37
48386;BME280;34644;47.964;7.982;2023-04-03T16:11:59;97134.78;;;15.35;62.38
48386;BME280;34644;47.964;7.982;2023-04-03T16:19:00;97137.28;;;15.47;61.36
48386;BME280;34644;47.964;7.982;2023-04-03T16:26:00;97144.66;;;15.40;61.97
48386;BME280;34644;47.964;7.982;2023-04-03T16:33:01;97145.16;;;15.36;62.17
48386;BME280;34644;47.964;7.982;2023-04-03T16:40:01;97139.03;;;15.36;62.26
48386;BME280;34644;47.964;7.982;2023-04-03T16:47:02;97141.69;;;15.36;62.19
48386;BME280;34644;47.964;7.982;2023-04-03T16:54:03;97140.91;;;15.35;62.11
48386;BME280;34644;47.964;7.982;2023-04-03T17:01:13;97146.47;;;15.34;62.16
48386;BME280;34644;47.964;7.982;2023-04-03T17:08:15;97151.78;;;15.34;61.57
48386;BME280;34644;47.964;7.982;2023-04-03T17:15:16;97155.03;;;15.41;61.63
48386;BME280;34644;47.964;7.982;2023-04-03T17:22:16;97154.19;;;15.35;62.11
48386;BME280;34644;47.964;7.982;2023-04-03T17:29:17;97152.28;;;15.31;60.89
48386;BME280;34644;47.964;7.982;2023-04-03T17:36:17;97156.97;;;15.24;60.06
48386;BME280;34644;47.964;7.982;2023-04-03T17:43:17;97153.78;;;15.22;59.87
48386;BME280;34644;47.964;7.982;2023-04-03T17:50:18;97157.47;;;15.20;60.51
48386;BME280;34644;47.964;7.982;2023-04-03T17:57:18;97157.47;;;15.20;60.53
48386;BME280;34644;47.964;7.982;2023-04-03T18:04:18;97155.84;;;15.19;60.36
48386;BME280;34644;47.964;7.982;2023-04-03T18:11:19;97164.66;;;15.20;60.76
48386;BME280;34644;47.964;7.982;2023-04-03T18:18:21;97158.50;;;15.19;60.61
48386;BME280;34644;47.964;7.982;2023-04-03T18:25:21;97152.91;;;15.16;60.45
48386;BME280;34644;47.964;7.982;2023-04-03T18:32:22;97164.59;;;15.15;60.35
48386;BME280;34644;47.964;7.982;2023-04-03T18:39:22;97162.19;;;15.13;60.26
48386;BME280;34644;47.964;7.982;2023-04-03T18:46:23;97171.44;;;15.11;60.23
48386;BME280;34644;47.964;7.982;2023-04-03T18:53:23;97166.72;;;15.18;59.85
48386;BME280;34644;47.964;7.982;2023-04-03T19:00:23;97171.38;;;15.28;60.54
48386;BME280;34644;47.964;7.982;2023-04-03T19:07:25;97175.94;;;15.32;60.66
48386;BME280;34644;47.964;7.982;2023-04-03T19:14:25;97172.16;;;15.28;60.43
48386;BME280;34644;47.964;7.982;2023-04-03T19:21:25;97161.81;;;15.05;57.58
48386;BME280;34644;47.964;7.982;2023-04-03T19:28:27;97168.53;;;15.12;59.30
48386;BME280;34644;47.964;7.982;2023-04-03T19:35:27;97165.63;;;15.14;59.65
48386;BME280;34644;47.964;7.982;2023-04-03T19:42:27;97169.34;;;15.13;59.47
48386;BME280;34644;47.964;7.982;2023-04-03T19:49:28;97170.41;;;15.12;59.81
48386;BME280;34644;47.964;7.982;2023-04-03T19:56:28;97168.78;;;15.11;59.60
48386;BME280;34644;47.964;7.982;2023-04-03T20:03:28;97168.00;;;15.10;59.24
48386;BME280;34644;47.964;7.982;2023-04-03T20:10:29;97167.41;;;15.08;58.93
48386;BME280;34644;47.964;7.982;2023-04-03T20:17:29;97159.47;;;15.08;58.93
48386;BME280;34644;47.964;7.982;2023-04-03T20:24:32;97156.97;;;14.01;50.61
48386;BME280;34644;47.964;7.982;2023-04-03T20:31:33;97152.00;;;14.61;54.50
48386;BME280;34644;47.964;7.982;2023-04-03T20:38:33;97148.44;;;14.72;57.04
48386;BME280;34644;47.964;7.982;2023-04-03T20:45:33;97146.63;;;14.78;58.04
48386;BME280;34644;47.964;7.982;2023-04-03T20:52:34;97154.91;;;14.81;58.79
48386;BME280;34644;47.964;7.982;2023-04-03T20:59:35;97137.94;;;14.82;59.66
48386;BME280;34644;47.964;7.982;2023-04-03T21:21:19;97130.72;;;14.78;60.42
48386;BME280;34644;47.964;7.982;2023-04-03T21:28:22;97128.31;;;14.76;60.46
48386;BME280;34644;47.964;7.982;2023-04-03T21:35:23;97130.19;;;14.76;60.72
48386;BME280;34644;47.964;7.982;2023-04-03T21:42:24;97121.38;;;14.75;60.77
48386;BME280;34644;47.964;7.982;2023-04-03T21:49:24;97134.94;;;14.74;60.88
48386;BME280;34644;47.964;7.982;2023-04-03T21:56:24;97130.91;;;14.71;61.14
48386;BME280;34644;47.964;7.982;2023-04-03T22:03:25;97136.22;;;14.71;61.20
48386;BME280;34644;47.964;7.982;2023-04-03T22:10:25;97127.47;;;14.71;61.20
48386;BME280;34644;47.964;7.982;2023-04-03T22:17:28;97117.09;;;14.69;61.29
48386;BME280;34644;47.964;7.982;2023-04-03T22:24:29;97115.50;;;14.68;61.62
48386;BME280;34644;47.964;7.982;2023-04-03T22:31:29;97120.78;;;14.68;61.51
48386;BME280;34644;47.964;7.982;2023-04-03T22:38:29;97127.13;;;14.67;61.68
48386;BME280;34644;47.964;7.982;2023-04-03T22:45:30;97122.91;;;14.66;61.63
48386;BME280;34644;47.964;7.982;2023-04-03T22:52:30;97118.63;;;14.65;61.78
48386;BME280;34644;47.964;7.982;2023-04-03T22:59:30;97120.50;;;14.64;61.78
48386;BME280;34644;47.964;7.982;2023-04-03T23:06:31;97120.50;;;14.64;61.72
48386;BME280;34644;47.964;7.982;2023-04-03T23:13:31;97123.38;;;14.63;61.90
48386;BME280;34644;47.964;7.982;2023-04-03T23:20:32;97118.31;;;14.61;62.14
48386;BME280;34644;47.964;7.982;2023-04-03T23:27:32;97126.28;;;14.61;62.15
48386;BME280;34644;47.964;7.982;2023-04-03T23:34:32;97115.69;;;14.61;62.16
48386;BME280;34644;47.964;7.982;2023-04-03T23:41:33;97114.84;;;14.61;62.23
48386;BME280;34644;47.964;7.982;2023-04-03T23:48:33;97114.28;;;14.59;62.17
48386;BME280;34644;47.964;7.982;2023-04-03T23:55:33;97108.19;;;14.58;62.35
